Time;durP1;ratioP1;P1;durP2;ratioP2;P2;SDS_P1;SDS_P2;PMS_P1;PMS_P2;Temp;Humidity;BMP_temperature;BMP_pressure;BME280_temperature;BME280_humidity;BME280_pressure;Samples;Min_cycle;Max_cycle;Signal;HPM_P1;HPM_P2
2023/08/28 00:02:16;;;;;;;;;;;;;;;13.24;94.01;101074.38;5046806;28;1910;-81
2023/08/28 00:04:41;;;;;;;;;;;;;;;13.24;94.11;101076.16;5042670;28;1272;-82
2023/08/28 00:07:06;;;;;;;;;;;;;;;13.21;94.14;101077.25;5040072;28;1224;-79
2023/08/28 00:09:34;;;;;;;;;;;;;;;13.20;94.03;101078.19;5045374;28;1133;-81
2023/08/28 00:11:59;;;;;;;;;;;;;;;13.19;94.35;101083.50;5040073;28;1178;-81
2023/08/28 00:14:24;;;;;;;;;;;;;;;13.17;94.12;101081.06;5038948;28;1192;-81
2023/08/28 00:16:52;;;;;;;;;;;;;;;13.15;94.52;101088.19;5045103;28;1407;-81
2023/08/28 00:19:17;;;;;;;;;;;;;;;13.14;94.63;101085.72;5034548;28;1126;-81
2023/08/28 00:21:43;;;;;;;;;;;;;;;13.15;94.69;101093.41;5038979;28;1490;-80
2023/08/28 00:24:08;;;;;;;;;;;;;;;13.15;95.00;101082.97;5036610;28;1945;-81
2023/08/28 00:26:33;;;;;;;;;;;;;;;13.15;94.82;101090.78;5043379;28;1199;-81
2023/08/28 00:29:01;;;;;;;;;;;;;;;13.17;94.80;101090.66;5045682;28;1179;-81
2023/08/28 00:31:26;;;;;;;;;;;;;;;13.18;94.68;101103.53;5044811;28;966;-81
2023/08/28 00:33:51;;;;;;;;;;;;;;;13.17;94.86;101107.09;5046074;28;1211;-81
2023/08/28 00:36:16;;;;;;;;;;;;;;;13.18;94.66;101106.13;5033000;28;1233;-81
2023/08/28 00:38:44;;;;;;;;;;;;;;;13.15;95.00;101098.59;5051473;28;1136;-80
2023/08/28 00:41:10;;;;;;;;;;;;;;;13.13;94.60;101095.31;5049205;28;1208;-81
2023/08/28 00:43:35;;;;;;;;;;;;;;;13.11;94.93;101092.00;5047193;28;2046;-82
2023/08/28 00:46:01;;;;;;;;;;;;;;;13.10;95.09;101095.56;5027786;28;1426;-80
2023/08/28 00:48:26;;;;;;;;;;;;;;;13.09;95.04;101099.16;5033455;28;1309;-81
2023/08/28 00:50:52;;;;;;;;;;;;;;;13.05;95.03;101100.38;5043445;28;1317;-81
2023/08/28 00:53:17;;;;;;;;;;;;;;;13.03;95.48;101097.91;5047088;28;1144;-80
2023/08/28 00:55:44;;;;;;;;;;;;;;;13.02;95.50;101098.03;5037129;28;1421;-81
2023/08/28 00:58:09;;;;;;;;;;;;;;;12.99;95.29;101106.09;5046418;28;1140;-82
2023/08/28 01:00:35;;;;;;;;;;;;;;;12.98;95.94;101101.88;5049807;28;1018;-82
2023/08/28 01:03:00;;;;;;;;;;;;;;;12.98;95.92;101091.44;5044472;28;1955;-82
2023/08/28 01:05:32;;;;;;;;;;;;;;;12.96;96.01;101081.19;5040109;28;1268;-81
2023/08/28 01:08:03;;;;;;;;;;;;;;;12.99;95.85;101082.69;5037831;28;1287;-82
2023/08/28 01:10:34;;;;;;;;;;;;;;;12.96;96.29;101080.31;5046937;28;1207;-81
2023/08/28 01:13:06;;;;;;;;;;;;;;;12.95;95.90;101070.88;5044127;28;1412;-82
2023/08/28 01:15:32;;;;;;;;;;;;;;;12.93;96.13;101067.59;5023128;28;1324;-82
2023/08/28 01:18:00;;;;;;;;;;;;;;;12.91;95.73;101069.53;5045095;28;1212;-82
2023/08/28 01:20:27;;;;;;;;;;;;;;;12.88;96.29;101064.56;5040975;28;1208;-82
2023/08/28 01:23:04;;;;;;;;;;;;;;;12.87;96.22;101062.94;5034119;28;1894;-81
2023/08/28 01:25:30;;;;;;;;;;;;;;;12.85;96.42;101070.88;5047865;28;1646;-81
2023/08/28 01:27:56;;;;;;;;;;;;;;;12.84;96.74;101063.19;5026539;28;1234;-82
2023/08/28 01:30:24;;;;;;;;;;;;;;;12.85;96.72;101070.88;5041749;28;1256;-81
2023/08/28 01:32:52;;;;;;;;;;;;;;;12.86;96.89;101072.50;5026147;28;1237;-80
2023/08/28 01:35:24;;;;;;;;;;;;;;;12.88;96.79;101067.16;5043069;28;1170;-81
2023/08/28 01:38:08;;;;;;;;;;;;;;;12.91;97.17;101069.53;5046459;28;1457;-81
2023/08/28 01:40:52;;;;;;;;;;;;;;;12.93;97.04;101062.38;5031417;28;1184;-83
2023/08/28 01:43:20;;;;;;;;;;;;;;;12.91;96.84;101062.53;5030704;28;1882;-81
2023/08/28 01:45:46;;;;;;;;;;;;;;;12.88;96.85;101067.16;5023901;28;1259;-83
2023/08/28 01:48:11;;;;;;;;;;;;;;;12.83;96.99;101066.75;5026064;28;1366;-83
2023/08/28 01:50:36;;;;;;;;;;;;;;;12.79;96.99;101073.16;5045731;28;1192;-83
2023/08/28 01:53:01;;;;;;;;;;;;;;;12.74;97.13;101064.00;5044572;28;1362;-83
2023/08/28 01:55:58;;;;;;;;;;;;;;;12.72;97.15;101065.88;5038333;28;1184;-83
2023/08/28 01:58:26;;;;;;;;;;;;;;;12.69;97.50;101060.97;5026760;28;1307;-83
2023/08/28 02:00:51;;;;;;;;;;;;;;;12.67;97.73;101047.28;5041257;28;1170;-83
2023/08/28 02:03:16;;;;;;;;;;;;;;;12.65;97.63;101049.16;5041547;28;1902;-83
2023/08/28 02:05:41;;;;;;;;;;;;;;;12.65;97.58;101054.38;5045712;28;1164;-83
2023/08/28 02:08:06;;;;;;;;;;;;;;;12.63;98.23;101050.28;5028626;28;1624;-83
2023/08/28 02:10:32;;;;;;;;;;;;;;;12.61;97.86;101045.19;5050464;28;1501;-82
2023/08/28 02:12:57;;;;;;;;;;;;;;;12.63;98.06;101043.28;5041490;28;1063;-83
2023/08/28 02:15:22;;;;;;;;;;;;;;;12.63;98.11;101045.06;5029061;28;1535;-82
2023/08/28 02:17:47;;;;;;;;;;;;;;;12.60;97.55;101040.13;5037016;28;1473;-82
2023/08/28 02:20:13;;;;;;;;;;;;;;;12.62;98.14;101044.25;5044375;28;1076;-83
2023/08/28 02:22:38;;;;;;;;;;;;;;;12.64;97.86;101039.72;5044462;28;1901;-82
2023/08/28 02:25:05;;;;;;;;;;;;;;;12.65;97.91;101038.75;5026712;28;1115;-83
2023/08/28 02:27:30;;;;;;;;;;;;;;;12.64;97.76;101031.91;5030034;28;1376;-83
2023/08/28 02:29:55;;;;;;;;;;;;;;;12.65;97.50;101033.56;5041530;28;1603;-83
2023/08/28 02:32:20;;;;;;;;;;;;;;;12.68;97.77;101042.91;5039947;28;1051;-82
2023/08/28 02:34:46;;;;;;;;;;;;;;;12.68;97.72;101038.50;5046221;28;1400;-82
2023/08/28 02:37:11;;;;;;;;;;;;;;;12.68;97.49;101037.69;5037511;28;1213;-81
2023/08/28 02:39:39;;;;;;;;;;;;;;;12.68;98.03;101042.91;5044612;28;1167;-83
2023/08/28 02:42:04;;;;;;;;;;;;;;;12.67;97.82;101051.63;5057653;28;1609;-82
2023/08/28 02:44:29;;;;;;;;;;;;;;;12.66;98.11;101050.81;5049362;28;1898;-83
2023/08/28 02:46:55;;;;;;;;;;;;;;;12.65;97.67;101043.97;5037736;28;1215;-82
2023/08/28 02:49:20;;;;;;;;;;;;;;;12.66;97.27;101043.00;5047640;28;1261;-82
2023/08/28 02:51:45;;;;;;;;;;;;;;;12.64;97.77;101037.13;5035874;28;1273;-81
2023/08/28 02:54:10;;;;;;;;;;;;;;;12.63;97.64;101030.28;5044074;28;1236;-83
2023/08/28 02:56:39;;;;;;;;;;;;;;;12.58;98.10;101040.25;5050647;28;1170;-81
2023/08/28 02:59:04;;;;;;;;;;;;;;;12.55;98.12;101037.91;5047903;28;1109;-83
2023/08/28 03:01:34;;;;;;;;;;;;;;;12.57;97.97;101046.41;5041436;28;1098;-81
2023/08/28 03:04:07;;;;;;;;;;;;;;;12.58;97.98;101048.06;5044458;28;1901;-83
2023/08/28 03:06:35;;;;;;;;;;;;;;;12.58;98.02;101053.25;5037034;28;1097;-82
2023/08/28 03:09:00;;;;;;;;;;;;;;;12.58;97.98;101048.06;5037491;28;1045;-83
2023/08/28 03:11:26;;;;;;;;;;;;;;;12.57;97.66;101062.03;5047993;28;1520;-82
2023/08/28 03:13:51;;;;;;;;;;;;;;;12.56;98.43;101070.81;5046876;28;1292;-80
2023/08/28 03:16:16;;;;;;;;;;;;;;;12.57;98.58;101072.44;5037114;28;1132;-81
2023/08/28 03:18:41;;;;;;;;;;;;;;;12.56;98.57;101073.41;5048438;28;1514;-83
2023/08/28 03:21:06;;;;;;;;;;;;;;;12.54;98.29;101070.09;5041719;28;1184;-82
2023/08/28 03:23:32;;;;;;;;;;;;;;;12.47;98.82;101076.78;5027320;28;1914;-82
2023/08/28 03:25:57;;;;;;;;;;;;;;;12.41;98.46;101082.50;5045768;28;1224;-82
2023/08/28 03:28:22;;;;;;;;;;;;;;;12.39;98.46;101084.44;5043868;28;1150;-83
2023/08/28 03:30:47;;;;;;;;;;;;;;;12.40;98.47;101088.66;5044037;28;1105;-83
2023/08/28 03:33:12;;;;;;;;;;;;;;;12.39;98.55;101084.44;5046400;28;1306;-82
2023/08/28 03:35:38;;;;;;;;;;;;;;;12.39;98.34;101084.44;5036885;28;1193;-82
2023/08/28 03:38:03;;;;;;;;;;;;;;;12.37;98.36;101076.72;5039947;28;1287;-81
2023/08/28 03:40:28;;;;;;;;;;;;;;;12.33;98.35;101080.56;5039446;28;1033;-83
2023/08/28 03:42:53;;;;;;;;;;;;;;;12.29;98.37;101086.16;5042277;28;1890;-82
2023/08/28 03:45:19;;;;;;;;;;;;;;;12.27;98.95;101091.47;5045675;28;1278;-83
2023/08/28 03:47:44;;;;;;;;;;;;;;;12.22;98.75;101089.28;5041490;28;1415;-82
2023/08/28 03:50:09;;;;;;;;;;;;;;;12.19;98.86;101094.72;5028033;28;1732;-81
2023/08/28 03:52:34;;;;;;;;;;;;;;;12.18;99.69;101097.47;5029008;28;1260;-80
2023/08/28 03:54:59;;;;;;;;;;;;;;;12.20;99.85;101098.97;5025753;28;1286;-83
2023/08/28 03:57:27;;;;;;;;;;;;;;;12.21;99.66;101097.19;5040856;28;1416;-83
2023/08/28 03:59:52;;;;;;;;;;;;;;;12.24;100.00;101096.94;5035226;28;1096;-83
2023/08/28 04:02:19;;;;;;;;;;;;;;;12.25;99.86;101085.56;5036229;28;1192;-83
2023/08/28 04:04:44;;;;;;;;;;;;;;;12.26;99.45;101091.59;5047001;28;1895;-82
2023/08/28 04:07:20;;;;;;;;;;;;;;;12.21;100.00;101087.63;5051550;28;1201;-82
2023/08/28 04:09:46;;;;;;;;;;;;;;;12.21;99.65;101094.56;5051021;28;1078;-82
2023/08/28 04:12:11;;;;;;;;;;;;;;;12.20;99.39;101101.56;5035152;28;1349;-83
2023/08/28 04:14:36;;;;;;;;;;;;;;;12.18;99.38;101106.06;5053636;28;1224;-83
2023/08/28 04:17:02;;;;;;;;;;;;;;;12.16;99.32;101115.78;5048449;28;1876;-81
2023/08/28 04:19:27;;;;;;;;;;;;;;;12.14;99.48;101115.06;5038100;28;1188;-83
2023/08/28 04:21:52;;;;;;;;;;;;;;;12.14;98.99;101122.88;5055429;28;1418;-83
2023/08/28 04:24:17;;;;;;;;;;;;;;;12.13;98.78;101121.22;5034733;28;1909;-82
2023/08/28 04:26:42;;;;;;;;;;;;;;;12.13;99.11;101131.63;5033512;28;1243;-81
2023/08/28 04:29:08;;;;;;;;;;;;;;;12.10;99.12;101126.72;5047108;28;1118;-82
2023/08/28 04:31:33;;;;;;;;;;;;;;;12.09;99.21;101135.44;5054583;28;1156;-83
2023/08/28 04:33:58;;;;;;;;;;;;;;;12.07;99.44;101137.34;5052598;28;1255;-81
2023/08/28 04:36:23;;;;;;;;;;;;;;;12.07;99.52;101145.16;5048259;28;1337;-83
2023/08/28 04:38:48;;;;;;;;;;;;;;;12.07;99.57;101146.94;5037966;28;1767;-83
2023/08/28 04:41:14;;;;;;;;;;;;;;;12.03;99.63;101141.13;5053155;28;1423;-82
2023/08/28 04:43:39;;;;;;;;;;;;;;;12.01;99.71;101132.66;5055098;28;1918;-81
2023/08/28 04:46:04;;;;;;;;;;;;;;;12.01;99.66;101132.66;5036745;28;1304;-81
2023/08/28 04:48:30;;;;;;;;;;;;;;;12.03;100.00;101133.34;5041252;28;1315;-82
2023/08/28 04:50:55;;;;;;;;;;;;;;;12.03;99.48;101130.75;5051261;28;1086;-83
2023/08/28 04:53:20;;;;;;;;;;;;;;;12.05;99.69;101131.47;5044816;28;1153;-82
2023/08/28 04:55:45;;;;;;;;;;;;;;;12.04;100.00;101127.19;5047136;28;1419;-82
2023/08/28 04:58:13;;;;;;;;;;;;;;;11.99;99.68;101123.34;5048576;28;1308;-82
2023/08/28 05:00:38;;;;;;;;;;;;;;;11.94;100.00;101115.94;5048478;28;1273;-82
2023/08/28 05:03:04;;;;;;;;;;;;;;;11.93;100.00;101114.28;5034532;28;1894;-82
2023/08/28 05:05:30;;;;;;;;;;;;;;;11.91;100.00;101122.19;5053035;28;1605;-81
2023/08/28 05:07:55;;;;;;;;;;;;;;;11.91;100.00;101116.16;5050588;28;1137;-83
2023/08/28 05:10:20;;;;;;;;;;;;;;;11.89;100.00;101112.88;5049005;28;1181;-82
2023/08/28 05:12:45;;;;;;;;;;;;;;;11.90;100.00;101111.91;5048628;28;1185;-83
2023/08/28 05:15:11;;;;;;;;;;;;;;;11.88;100.00;101113.84;5029473;28;1192;-82
2023/08/28 05:17:36;;;;;;;;;;;;;;;11.88;100.00;101111.22;5049564;28;1146;-82
2023/08/28 05:20:01;;;;;;;;;;;;;;;11.89;100.00;101108.50;5028850;28;1385;-82
2023/08/28 05:22:26;;;;;;;;;;;;;;;11.89;100.00;101113.69;5041786;28;1886;-82
2023/08/28 05:24:51;;;;;;;;;;;;;;;11.89;100.00;101112.88;5044747;28;1189;-82
2023/08/28 05:27:17;;;;;;;;;;;;;;;11.90;100.00;101106.72;5041885;28;1450;-82
2023/08/28 05:29:43;;;;;;;;;;;;;;;11.87;100.00;101107.81;5043443;28;1180;-82
2023/08/28 05:32:08;;;;;;;;;;;;;;;11.87;100.00;101104.38;5026301;28;1292;-83
2023/08/28 05:34:34;;;;;;;;;;;;;;;11.87;100.00;101104.38;5041183;28;1212;-82
2023/08/28 05:36:59;;;;;;;;;;;;;;;11.86;100.00;101102.72;5049330;28;1245;-82
2023/08/28 05:39:24;;;;;;;;;;;;;;;11.86;100.00;101097.53;5049158;28;1065;-82
2023/08/28 05:41:49;;;;;;;;;;;;;;;11.87;100.00;101109.56;5045272;28;1113;-81
2023/08/28 05:44:15;;;;;;;;;;;;;;;11.89;100.00;101112.88;5021815;28;1890;-82
2023/08/28 05:46:40;;;;;;;;;;;;;;;11.92;100.00;101112.59;5042917;28;1395;-81
2023/08/28 05:49:07;;;;;;;;;;;;;;;11.96;100.00;101111.41;5043404;28;1393;-81
2023/08/28 05:51:32;;;;;;;;;;;;;;;11.99;100.00;101103.38;5044975;28;1261;-82
2023/08/28 05:53:57;;;;;;;;;;;;;;;12.02;100.00;101113.50;5045077;28;1176;-82
2023/08/28 05:56:25;;;;;;;;;;;;;;;12.06;100.00;101114.09;5030561;28;1282;-82
2023/08/28 05:58:50;;;;;;;;;;;;;;;12.10;100.00;101100.72;5045838;28;1439;-82
2023/08/28 06:01:15;;;;;;;;;;;;;;;12.16;100.00;101110.59;5044082;28;1147;-81
2023/08/28 06:03:40;;;;;;;;;;;;;;;12.22;100.00;101107.47;5044250;28;1894;-82
2023/08/28 06:06:06;;;;;;;;;;;;;;;12.27;100.00;101108.84;5048785;28;1241;-82
2023/08/28 06:08:31;;;;;;;;;;;;;;;12.33;100.00;101121.34;5047358;28;1125;-82
2023/08/28 06:10:56;;;;;;;;;;;;;;;12.37;100.00;101125.31;5043666;28;1504;-82
2023/08/28 06:13:21;;;;;;;;;;;;;;;12.42;100.00;101115.38;5047124;28;1205;-83
2023/08/28 06:15:48;;;;;;;;;;;;;;;12.48;100.00;101117.44;5051153;28;1256;-82
2023/08/28 06:18:16;;;;;;;;;;;;;;;12.54;100.00;101123.91;5043670;28;1127;-82
2023/08/28 06:20:41;;;;;;;;;;;;;;;12.61;100.00;101110.22;5034605;28;1255;-82
2023/08/28 06:23:06;;;;;;;;;;;;;;;12.69;100.00;101107.81;5046201;28;1898;-81
2023/08/28 06:25:31;;;;;;;;;;;;;;;12.76;100.00;101106.31;5046330;28;1093;-82
2023/08/28 06:27:57;;;;;;;;;;;;;;;12.83;100.00;101105.78;5049391;28;1162;-82
2023/08/28 06:30:22;;;;;;;;;;;;;;;12.90;100.00;101114.72;5047041;28;1175;-81
2023/08/28 06:32:47;;;;;;;;;;;;;;;12.95;100.00;101118.56;5044619;28;998;-82
2023/08/28 06:35:12;;;;;;;;;;;;;;;13.02;100.00;101129.28;5029139;28;1192;-82
2023/08/28 06:37:40;;;;;;;;;;;;;;;13.08;100.00;101123.53;5040315;28;1177;-81
2023/08/28 06:40:08;;;;;;;;;;;;;;;13.15;100.00;101114.22;5040140;28;1437;-83
2023/08/28 06:42:34;;;;;;;;;;;;;;;13.20;100.00;101122.47;5038019;28;1926;-83
2023/08/28 06:44:59;;;;;;;;;;;;;;;13.25;100.00;101125.53;5039035;28;1067;-82
2023/08/28 06:47:24;;;;;;;;;;;;;;;13.29;100.00;101126.88;5046875;28;1283;-82
2023/08/28 06:49:49;;;;;;;;;;;;;;;13.36;100.00;101128.94;5042041;28;1201;-82
2023/08/28 06:52:17;;;;;;;;;;;;;;;13.39;100.00;101133.91;5048199;28;1311;-82
2023/08/28 06:54:45;;;;;;;;;;;;;;;13.42;100.00;101133.59;5036532;28;1392;-80
2023/08/28 06:57:11;;;;;;;;;;;;;;;13.46;100.00;101124.56;5043011;28;1627;-82
2023/08/28 06:59:36;;;;;;;;;;;;;;;13.49;100.00;101122.53;5046907;28;1462;-82
2023/08/28 07:02:01;;;;;;;;;;;;;;;13.55;100.00;101126.38;5040111;28;1188;-82
2023/08/28 07:04:26;;;;;;;;;;;;;;;13.58;100.00;101128.69;5056616;28;1898;-81
2023/08/28 07:06:52;;;;;;;;;;;;;;;13.61;100.00;101136.25;5040873;28;1371;-80
2023/08/28 07:09:17;;;;;;;;;;;;;;;13.69;100.00;101135.53;5049895;28;1073;-82
2023/08/28 07:11:43;;;;;;;;;;;;;;;13.79;100.00;101144.19;5047528;28;1254;-81
2023/08/28 07:14:08;;;;;;;;;;;;;;;13.85;100.00;101142.81;5035283;28;1224;-81
2023/08/28 07:16:34;;;;;;;;;;;;;;;13.92;100.00;101154.31;5043238;28;1450;-81
2023/08/28 07:18:59;;;;;;;;;;;;;;;13.97;100.00;101146.91;5051144;28;1440;-82
2023/08/28 07:21:24;;;;;;;;;;;;;;;14.03;100.00;101147.19;5050718;28;1115;-81
2023/08/28 07:23:51;;;;;;;;;;;;;;;14.11;100.00;101154.31;5047941;28;1894;-83
2023/08/28 07:26:16;;;;;;;;;;;;;;;14.22;100.00;101156.78;5049210;28;1197;-83
2023/08/28 07:28:42;;;;;;;;;;;;;;;14.28;100.00;101151.00;5048277;28;1403;-82
2023/08/28 07:31:07;;;;;;;;;;;;;;;14.37;100.00;101153.69;5044008;28;1168;-82
2023/08/28 07:33:32;;;;;;;;;;;;;;;14.45;100.00;101152.03;5043325;28;1169;-82
2023/08/28 07:35:58;;;;;;;;;;;;;;;14.56;100.00;101153.66;5040566;28;1113;-82
2023/08/28 07:38:23;;;;;;;;;;;;;;;14.65;100.00;101147.59;5045724;28;1077;-81
2023/08/28 07:40:49;;;;;;;;;;;;;;;14.72;100.00;101151.28;5024117;28;1167;-82
2023/08/28 07:43:14;;;;;;;;;;;;;;;14.79;100.00;101149.72;5049552;28;1898;-81
2023/08/28 07:45:40;;;;;;;;;;;;;;;14.84;100.00;101150.09;5047870;28;1377;-82
2023/08/28 07:48:05;;;;;;;;;;;;;;;14.92;100.00;101148.59;5044980;28;1133;-80
2023/08/28 07:50:30;;;;;;;;;;;;;;;15.01;100.00;101150.31;5048392;28;1176;-82
2023/08/28 07:52:56;;;;;;;;;;;;;;;15.11;100.00;101145.84;5051126;28;1291;-82
2023/08/28 07:55:24;;;;;;;;;;;;;;;15.21;100.00;101149.25;5046854;28;1394;-82
2023/08/28 07:57:49;;;;;;;;;;;;;;;15.31;100.00;101147.38;5052160;28;1248;-82
2023/08/28 08:00:16;;;;;;;;;;;;;;;15.40;100.00;101143.88;5046087;28;1145;-80
2023/08/28 08:02:41;;;;;;;;;;;;;;;15.53;100.00;101145.28;5036401;28;1963;-82
2023/08/28 08:05:07;;;;;;;;;;;;;;;15.60;100.00;101148.97;5042850;28;1180;-81
2023/08/28 08:07:33;;;;;;;;;;;;;;;15.72;100.00;101146.97;5031527;28;1160;-82
2023/08/28 08:09:58;;;;;;;;;;;;;;;15.83;100.00;101149.34;5044794;28;1259;-83
2023/08/28 08:12:23;;;;;;;;;;;;;;;15.91;100.00;101142.38;5041389;28;1293;-82
2023/08/28 08:14:48;;;;;;;;;;;;;;;15.99;100.00;101153.88;5050186;28;1204;-80
2023/08/28 08:17:14;;;;;;;;;;;;;;;16.05;100.00;101153.25;5057103;28;1510;-82
2023/08/28 08:19:39;;;;;;;;;;;;;;;16.13;100.00;101146.31;5053684;28;1373;-82
2023/08/28 08:22:04;;;;;;;;;;;;;;;16.15;100.00;101151.38;5039548;28;1292;-82
2023/08/28 08:24:30;;;;;;;;;;;;;;;16.18;100.00;101148.47;5046409;28;2277;-82
2023/08/28 08:26:56;;;;;;;;;;;;;;;16.19;100.00;101148.31;5054018;28;1177;-82
2023/08/28 08:29:22;;;;;;;;;;;;;;;16.29;100.00;101145.59;5047458;28;1195;-81
2023/08/28 08:31:47;;;;;;;;;;;;;;;16.29;100.00;101148.22;5044680;28;1270;-81
2023/08/28 08:34:12;;;;;;;;;;;;;;;16.37;100.00;101143.00;5028984;28;1404;-81
2023/08/28 08:36:39;;;;;;;;;;;;;;;16.40;100.00;101152.34;5047450;28;1169;-82
2023/08/28 08:39:04;;;;;;;;;;;;;;;16.37;98.52;101153.47;5044733;28;1451;-82
2023/08/28 08:41:29;;;;;;;;;;;;;;;16.38;99.83;101155.13;5047329;28;1150;-82
2023/08/28 08:43:55;;;;;;;;;;;;;;;16.41;99.72;101152.19;5054931;28;1867;-81
2023/08/28 08:46:20;;;;;;;;;;;;;;;16.44;99.48;101159.72;5055105;28;1108;-81
2023/08/28 08:48:45;;;;;;;;;;;;;;;16.40;98.69;101153.19;5057461;28;1078;-81
2023/08/28 08:51:13;;;;;;;;;;;;;;;16.39;99.04;101162.00;5061481;28;1581;-81
2023/08/28 08:53:43;;;;;;;;;;;;;;;16.38;97.82;101157.72;5044070;28;1247;-82
2023/08/28 08:56:11;;;;;;;;;;;;;;;16.39;96.35;101167.22;5052762;28;1070;-81
2023/08/28 08:58:37;;;;;;;;;;;;;;;16.46;98.16;101167.44;5055494;28;1299;-80
2023/08/28 09:01:04;;;;;;;;;;;;;;;16.57;98.14;101163.72;5056337;28;1482;-82
2023/08/28 09:03:29;;;;;;;;;;;;;;;16.71;97.93;101165.81;5052723;28;1878;-81
2023/08/28 09:05:55;;;;;;;;;;;;;;;16.75;97.92;101161.09;5054022;28;1110;-81
2023/08/28 09:08:22;;;;;;;;;;;;;;;16.83;97.78;101163.72;5035496;28;1311;-81
2023/08/28 09:10:47;;;;;;;;;;;;;;;16.88;97.24;101161.47;5046868;28;1426;-81
2023/08/28 09:13:21;;;;;;;;;;;;;;;16.97;97.53;101161.34;5051448;28;1203;-81
2023/08/28 09:15:46;;;;;;;;;;;;;;;17.12;98.04;101158.91;5055626;28;1326;-82
2023/08/28 09:18:12;;;;;;;;;;;;;;;17.18;95.20;101162.69;5039152;28;1446;-82
2023/08/28 09:20:37;;;;;;;;;;;;;;;17.13;94.43;101167.59;5044624;28;1181;-83
2023/08/28 09:23:02;;;;;;;;;;;;;;;17.11;95.66;101166.94;5032733;28;1969;-84
2023/08/28 09:25:28;;;;;;;;;;;;;;;17.10;94.34;101165.31;5042946;28;1197;-82
2023/08/28 09:27:54;;;;;;;;;;;;;;;17.13;95.07;101165.78;5043244;28;1082;-84
2023/08/28 09:30:29;;;;;;;;;;;;;;;17.19;93.50;101159.09;5025435;28;1821;-81
2023/08/28 09:32:56;;;;;;;;;;;;;;;17.32;94.90;101162.09;5038669;28;1114;-82
2023/08/28 09:35:21;;;;;;;;;;;;;;;17.42;94.02;101160.13;5037603;28;1420;-82
2023/08/28 09:37:59;;;;;;;;;;;;;;;17.49;93.90;101155.88;5036959;28;1081;-84
2023/08/28 09:40:29;;;;;;;;;;;;;;;17.46;89.59;101161.44;5042763;28;1244;-81
2023/08/28 09:42:54;;;;;;;;;;;;;;;17.48;91.79;101154.22;5042778;28;1882;-84
2023/08/28 09:45:19;;;;;;;;;;;;;;;17.61;92.25;101153.75;5045881;28;1494;-82
2023/08/28 09:47:44;;;;;;;;;;;;;;;17.69;91.97;101160.81;5036607;28;1164;-84
2023/08/28 09:50:10;;;;;;;;;;;;;;;17.75;91.67;101160.19;5049234;28;1345;-83
2023/08/28 09:52:35;;;;;;;;;;;;;;;17.75;91.50;101165.44;5043540;28;1253;-84
2023/08/28 09:55:07;;;;;;;;;;;;;;;17.85;91.11;101168.72;5046433;28;1275;-83
2023/08/28 09:57:35;;;;;;;;;;;;;;;18.00;91.11;101169.69;5039513;28;1250;-83
2023/08/28 10:00:00;;;;;;;;;;;;;;;18.11;90.86;101171.16;5051425;28;1299;-83
2023/08/28 10:02:29;;;;;;;;;;;;;;;18.13;88.99;101169.19;5045146;28;1114;-82
2023/08/28 10:04:56;;;;;;;;;;;;;;;18.15;89.29;101166.41;5045244;28;1898;-84
2023/08/28 10:07:22;;;;;;;;;;;;;;;18.08;85.93;101171.50;5038037;28;1354;-83
2023/08/28 10:09:51;;;;;;;;;;;;;;;18.01;86.19;101176.59;5046569;28;1022;-83
2023/08/28 10:12:21;;;;;;;;;;;;;;;18.02;87.31;101166.91;5047951;28;1169;-83
2023/08/28 10:14:48;;;;;;;;;;;;;;;18.10;88.04;101168.69;5045748;28;1338;-84
2023/08/28 10:17:14;;;;;;;;;;;;;;;18.21;87.55;101161.28;5042226;28;1201;-84
2023/08/28 10:19:47;;;;;;;;;;;;;;;18.35;87.91;101161.59;5036077;28;1282;-84
2023/08/28 10:22:12;;;;;;;;;;;;;;;18.48;86.98;101156.66;5038443;28;1340;-85
2023/08/28 10:24:40;;;;;;;;;;;;;;;18.49;83.92;101159.09;5027121;28;1890;-81
2023/08/28 10:27:05;;;;;;;;;;;;;;;18.44;83.78;101156.16;5040663;28;1632;-82
2023/08/28 10:29:32;;;;;;;;;;;;;;;18.42;84.89;101147.63;5042700;28;1147;-83
2023/08/28 10:31:58;;;;;;;;;;;;;;;18.48;85.47;101152.22;5041318;28;1141;-83
2023/08/28 10:34:25;;;;;;;;;;;;;;;18.65;85.07;101157.41;5046797;28;1140;-84
2023/08/28 10:36:51;;;;;;;;;;;;;;;18.78;84.90;101158.53;5047138;28;1282;-84
2023/08/28 10:39:17;;;;;;;;;;;;;;;18.80;84.14;101166.25;5042068;28;1454;-85
2023/08/28 10:41:43;;;;;;;;;;;;;;;18.91;83.87;101157.97;5024246;28;1368;-84
2023/08/28 10:44:09;;;;;;;;;;;;;;;18.98;81.51;101158.97;5044215;28;1957;-83
2023/08/28 10:46:35;;;;;;;;;;;;;;;19.03;78.66;101158.41;5042320;28;1158;-84
2023/08/28 10:49:03;;;;;;;;;;;;;;;19.09;82.66;101155.91;5039355;28;1121;-83
2023/08/28 10:51:31;;;;;;;;;;;;;;;19.12;82.14;101156.56;5028119;28;1491;-83
2023/08/28 10:53:58;;;;;;;;;;;;;;;19.16;75.75;101168.41;5029184;28;1203;-84
2023/08/28 10:56:23;;;;;;;;;;;;;;;19.08;75.70;101164.78;5027089;28;1505;-86
2023/08/28 10:58:48;;;;;;;;;;;;;;;19.04;71.25;101163.53;5029893;28;1133;-84
2023/08/28 11:01:15;;;;;;;;;;;;;;;19.02;72.69;101154.97;5046731;28;1252;-83
2023/08/28 11:04:09;;;;;;;;;;;;;;;19.13;73.74;101150.31;5046256;28;1959;-82
2023/08/28 11:06:52;;;;;;;;;;;;;;;19.22;74.60;101154.56;5018785;28;1355;-84
2023/08/28 11:09:27;;;;;;;;;;;;;;;19.42;73.93;101154.91;5047459;28;1202;-84
2023/08/28 11:12:13;;;;;;;;;;;;;;;19.60;68.65;101148.38;5042935;28;1090;-84
2023/08/28 11:14:39;;;;;;;;;;;;;;;19.78;71.95;101155.16;5030284;28;1316;-86
2023/08/28 11:17:07;;;;;;;;;;;;;;;19.78;72.88;101148.06;5045323;28;1138;-85
2023/08/28 11:19:56;;;;;;;;;;;;;;;19.85;73.63;101148.19;5045285;28;1116;-83
2023/08/28 11:22:36;;;;;;;;;;;;;;;19.87;73.76;101154.09;5023770;28;1312;-84
2023/08/28 11:25:07;;;;;;;;;;;;;;;19.86;73.54;101147.19;5044004;28;1893;-83
2023/08/28 11:27:33;;;;;;;;;;;;;;;19.88;72.57;101140.75;5023821;28;1352;-84
2023/08/28 11:30:08;;;;;;;;;;;;;;;19.93;72.85;101139.41;5044568;28;1384;-85
2023/08/28 11:32:33;;;;;;;;;;;;;;;20.05;71.11;101136.16;5044554;28;1141;-82
2023/08/28 11:35:00;;;;;;;;;;;;;;;20.15;72.58;101136.72;5042029;28;1173;-85
2023/08/28 11:37:32;;;;;;;;;;;;;;;20.23;71.60;101133.16;5039822;28;1145;-83
2023/08/28 11:39:57;;;;;;;;;;;;;;;20.26;71.32;101137.28;5040965;28;1683;-83
2023/08/28 11:42:24;;;;;;;;;;;;;;;20.07;63.63;101139.44;5046188;28;1432;-85
2023/08/28 11:44:49;;;;;;;;;;;;;;;20.07;68.24;101141.22;5045003;28;1953;-85
2023/08/28 11:47:14;;;;;;;;;;;;;;;20.08;66.05;101138.44;5045490;28;1327;-83
2023/08/28 11:49:39;;;;;;;;;;;;;;;20.03;66.57;101127.63;5033274;28;1189;-85
2023/08/28 11:52:05;;;;;;;;;;;;;;;20.02;65.04;101133.06;5045982;28;1165;-84
2023/08/28 11:54:32;;;;;;;;;;;;;;;20.01;65.76;101137.50;5045341;28;1133;-83
2023/08/28 11:57:00;;;;;;;;;;;;;;;20.09;67.91;101137.44;5046611;28;1098;-83
2023/08/28 11:59:26;;;;;;;;;;;;;;;20.07;66.08;101134.19;5045000;28;1200;-84
2023/08/28 12:01:51;;;;;;;;;;;;;;;20.08;67.13;101132.34;5045817;28;1193;-84
2023/08/28 12:04:22;;;;;;;;;;;;;;;20.09;65.24;101126.91;5046550;28;1965;-82
2023/08/28 12:06:48;;;;;;;;;;;;;;;20.15;65.06;101136.72;5045628;28;1159;-85
2023/08/28 12:09:14;;;;;;;;;;;;;;;20.19;66.44;101137.19;5028566;28;1483;-84
2023/08/28 12:11:41;;;;;;;;;;;;;;;20.20;61.38;101143.25;5045059;28;1200;-82
2023/08/28 12:14:16;;;;;;;;;;;;;;;20.13;64.83;101138.72;5042420;28;1109;-84
2023/08/28 12:16:41;;;;;;;;;;;;;;;20.19;65.44;101134.56;5042690;28;1426;-80
2023/08/28 12:19:06;;;;;;;;;;;;;;;20.32;63.69;101141.81;5045920;28;1370;-84
2023/08/28 12:21:38;;;;;;;;;;;;;;;20.36;65.29;101137.81;5046810;28;1105;-83
2023/08/28 12:24:06;;;;;;;;;;;;;;;20.51;64.44;101145.75;5046796;28;1890;-81
2023/08/28 12:26:31;;;;;;;;;;;;;;;20.60;64.59;101150.75;5051765;28;1064;-84
2023/08/28 12:28:56;;;;;;;;;;;;;;;20.58;61.66;101150.09;5048148;28;1205;-84
2023/08/28 12:31:32;;;;;;;;;;;;;;;20.48;63.77;101146.94;5049888;28;1149;-82
2023/08/28 12:34:07;;;;;;;;;;;;;;;20.48;64.26;101152.22;5046622;28;1192;-85
2023/08/28 12:36:40;;;;;;;;;;;;;;;20.47;63.84;101142.66;5049998;28;1270;-85
2023/08/28 12:39:06;;;;;;;;;;;;;;;20.47;64.23;101140.00;5042221;28;1150;-87
2023/08/28 12:41:34;;;;;;;;;;;;;;;20.44;64.49;101135.09;5049081;28;1325;-85